Terminal Aerodrome Forecast
Issued by NWS Charleston, WV

Current Version | Previous Version | Graphics & Text | Print | Product List | Glossary On
Versions: 1 2 3 4 5 6 7 8 9 10 11 12 13 14 15 16 17 18 19 20 21
661
FTUS41 KRLX 210829 AAA
TAFPKB
TAF AMD
KPKB 210829Z 2108/2206 34004KT P6SM OVC080
      TEMPO 2109/2111 6SM -RA BKN040
     FM211600 VRB03KT P6SM BKN025=

USA.gov is the U.S. government's official web portal to all federal, state and local government web resources and services.